createdAt,value
2022-10-23T00:00:03.371Z,13.23
2022-10-23T00:01:03.061Z,13.25
2022-10-23T00:02:03.254Z,13.24
2022-10-23T00:03:03.199Z,13.21
2022-10-23T00:04:03.429Z,13.15
2022-10-23T00:05:03.423Z,13.15
2022-10-23T00:06:03.152Z,13.21
2022-10-23T00:07:06.078Z,13.21
2022-10-23T00:08:03.269Z,13.23
2022-10-23T00:09:03.432Z,13.22
2022-10-23T00:10:03.282Z,13.19
2022-10-23T00:11:03.143Z,13.17
2022-10-23T00:12:03.146Z,13.14
2022-10-23T00:13:03.163Z,13.12
2022-10-23T00:14:03.544Z,13.13
2022-10-23T00:15:03.205Z,13.13
2022-10-23T00:16:03.182Z,13.11
2022-10-23T00:17:03.118Z,13.05
2022-10-23T00:18:06.171Z,13.05
2022-10-23T00:19:03.432Z,13.02
2022-10-23T00:20:03.427Z,13.02
2022-10-23T00:21:03.164Z,13.01
2022-10-23T00:22:03.079Z,13
2022-10-23T00:23:03.114Z,13
2022-10-23T00:24:03.501Z,12.99
2022-10-23T00:25:03.074Z,12.96
2022-10-23T00:26:03.142Z,12.96
2022-10-23T00:27:03.046Z,12.96
2022-10-23T00:28:03.153Z,12.96
2022-10-23T00:29:09.092Z,12.95
2022-10-23T00:30:03.216Z,12.95
2022-10-23T00:31:03.056Z,12.94
2022-10-23T00:32:03.141Z,12.87
2022-10-23T00:33:03.203Z,12.96
2022-10-23T00:34:03.421Z,12.96
2022-10-23T00:35:03.441Z,12.99
2022-10-23T00:36:03.078Z,12.93
2022-10-23T00:37:03.076Z,12.93
2022-10-23T00:38:03.169Z,12.93
2022-10-23T00:39:03.429Z,12.92
2022-10-23T00:40:06.105Z,12.89
2022-10-23T00:41:03.254Z,12.89
2022-10-23T00:42:03.054Z,12.94
2022-10-23T00:43:03.133Z,12.95
2022-10-23T00:44:03.497Z,12.94
2022-10-23T00:45:03.216Z,12.94
2022-10-23T00:46:03.091Z,12.88
2022-10-23T00:47:03.077Z,12.85
2022-10-23T00:48:03.167Z,12.82
2022-10-23T00:49:03.899Z,12.87
2022-10-23T00:50:03.539Z,12.84
2022-10-23T00:51:06.138Z,12.82
2022-10-23T00:52:03.141Z,12.83
2022-10-23T00:53:03.071Z,12.81
2022-10-23T00:55:20.029Z,12.89
2022-10-23T00:56:19.980Z,12.94
2022-10-23T00:57:20.178Z,13.07
2022-10-23T00:58:20.207Z,13.04
2022-10-23T00:59:20.361Z,13.03
2022-10-23T01:00:23.174Z,13
2022-10-23T01:01:20.227Z,13.02
2022-10-23T01:02:20.281Z,12.96
2022-10-23T01:03:20.185Z,12.98
2022-10-23T01:04:20.391Z,12.97
2022-10-23T01:05:20.356Z,12.96
2022-10-23T01:06:19.984Z,13.03
2022-10-23T01:07:20.076Z,13.04
2022-10-23T01:08:20.128Z,13.05
2022-10-23T01:09:20.431Z,13.03
2022-10-23T01:10:20.076Z,13.03
2022-10-23T01:11:23.294Z,13.06
2022-10-23T01:12:20.032Z,13.07
2022-10-23T01:13:19.977Z,13.09
2022-10-23T01:14:20.414Z,13.11
2022-10-23T01:15:20.087Z,13.08
2022-10-23T01:16:19.964Z,13.09
2022-10-23T01:17:19.991Z,13.07
2022-10-23T01:18:19.987Z,13.07
2022-10-23T01:19:20.417Z,13.12
2022-10-23T01:20:20.354Z,13.03
2022-10-23T01:21:20.177Z,13.04
2022-10-23T01:22:26.190Z,13.03
2022-10-23T01:23:20.090Z,13.04
2022-10-23T01:24:20.430Z,13.05
2022-10-23T01:25:20.187Z,13.02
2022-10-23T01:26:20.140Z,12.97
2022-10-23T01:27:20.114Z,12.95
2022-10-23T01:28:20.091Z,12.94
2022-10-23T01:29:20.497Z,12.97
2022-10-23T01:30:20.095Z,12.96
2022-10-23T01:31:20.100Z,12.96
2022-10-23T01:32:20.070Z,12.9
2022-10-23T01:33:23.032Z,12.89
2022-10-23T01:34:20.343Z,12.83
2022-10-23T01:35:20.345Z,12.84
2022-10-23T01:36:19.979Z,12.81
2022-10-23T01:37:19.969Z,12.8
2022-10-23T01:38:19.973Z,12.77
2022-10-23T01:39:20.346Z,12.73
2022-10-23T01:40:20.021Z,12.63
2022-10-23T01:41:19.975Z,12.7
2022-10-23T01:42:20.115Z,12.72
2022-10-23T01:43:20.105Z,12.7
2022-10-23T01:44:26.014Z,12.69
2022-10-23T01:45:20.090Z,12.64
2022-10-23T01:46:20.101Z,12.65
2022-10-23T01:48:27.656Z,12.69
2022-10-23T01:49:27.167Z,12.7
2022-10-23T01:50:27.384Z,12.71
2022-10-23T01:51:27.237Z,12.73
2022-10-23T01:52:27.178Z,12.72
2022-10-23T01:53:33.116Z,12.74
2022-10-23T01:54:27.105Z,12.78
2022-10-23T01:55:27.047Z,12.76
2022-10-23T01:56:27.008Z,12.83
2022-10-23T01:57:27.088Z,12.82
2022-10-23T01:58:27.495Z,12.76
2022-10-23T01:59:27.018Z,12.81
2022-10-23T02:00:27.031Z,12.82
2022-10-23T02:01:27.272Z,12.84
2022-10-23T02:02:27.164Z,12.88
2022-10-23T02:03:27.447Z,12.88
2022-10-23T02:04:30.079Z,12.85
2022-10-23T02:05:27.411Z,12.87
2022-10-23T02:06:27.128Z,12.91
2022-10-23T02:07:27.013Z,12.91
2022-10-23T02:08:27.450Z,12.91
2022-10-23T02:09:27.158Z,12.9
2022-10-23T02:10:27.128Z,12.91
2022-10-23T02:11:27.088Z,12.89
2022-10-23T02:13:33.912Z,12.86
2022-10-23T02:14:33.972Z,12.82
2022-10-23T02:15:34.037Z,12.85
2022-10-23T02:16:33.922Z,12.81
2022-10-23T02:17:33.943Z,12.81
2022-10-23T02:18:39.937Z,12.82
2022-10-23T02:19:34.022Z,12.82
2022-10-23T02:20:34.319Z,12.85
2022-10-23T02:21:33.992Z,12.87
2022-10-23T02:22:33.918Z,12.89
2022-10-23T02:23:34.317Z,12.9
2022-10-23T02:24:33.823Z,12.93
2022-10-23T02:25:33.821Z,12.92
2022-10-23T02:26:33.833Z,12.9
2022-10-23T02:27:33.892Z,12.88
2022-10-23T02:28:34.272Z,12.9
2022-10-23T02:29:36.837Z,12.89
2022-10-23T02:30:33.912Z,12.87
2022-10-23T02:31:33.826Z,12.79
2022-10-23T02:32:33.942Z,12.72
2022-10-23T02:33:34.291Z,12.73
2022-10-23T02:34:33.926Z,12.78
2022-10-23T02:35:34.194Z,12.69
2022-10-23T02:36:33.956Z,12.69
2022-10-23T02:37:34.057Z,12.69
2022-10-23T02:38:34.193Z,12.72
2022-10-23T02:39:33.881Z,12.76
2022-10-23T02:40:37.011Z,12.79
2022-10-23T02:41:34.026Z,12.79
2022-10-23T02:42:33.918Z,12.75
2022-10-23T02:43:34.265Z,12.73
2022-10-23T02:44:34.050Z,12.72
2022-10-23T02:45:34.056Z,12.67
2022-10-23T02:46:33.989Z,12.68
2022-10-23T02:47:33.988Z,12.69
2022-10-23T02:48:34.197Z,12.7
2022-10-23T02:49:33.985Z,12.66
2022-10-23T02:50:33.952Z,12.67
2022-10-23T02:51:36.864Z,12.72
2022-10-23T02:52:33.896Z,12.72
2022-10-23T02:53:34.272Z,12.74
2022-10-23T02:54:33.945Z,12.74
2022-10-23T02:55:33.933Z,12.8
2022-10-23T02:56:36.631Z,12.85
2022-10-23T02:57:33.968Z,12.86
2022-10-23T02:58:34.273Z,12.86
2022-10-23T02:59:34.005Z,12.85
2022-10-23T03:00:33.904Z,12.87
2022-10-23T03:01:34.012Z,12.87
2022-10-23T03:02:36.866Z,12.88
2022-10-23T03:03:34.206Z,12.87
2022-10-23T03:04:33.918Z,12.92
2022-10-23T03:05:34.292Z,12.93
2022-10-23T03:06:33.988Z,12.89
2022-10-23T03:07:33.957Z,12.91
2022-10-23T03:08:34.191Z,12.97
2022-10-23T03:09:33.836Z,13.03
2022-10-23T03:10:33.839Z,13.01
2022-10-23T03:11:33.818Z,13.08
2022-10-23T03:12:33.813Z,13.07
2022-10-23T03:13:37.220Z,13.04
2022-10-23T03:14:33.916Z,13.02
2022-10-23T03:15:33.817Z,13.03
2022-10-23T03:16:33.837Z,13.02
2022-10-23T03:17:33.940Z,13
2022-10-23T03:18:34.230Z,13.01
2022-10-23T03:19:33.953Z,12.9
2022-10-23T03:20:34.260Z,12.93
2022-10-23T03:21:34.004Z,12.94
2022-10-23T03:22:33.983Z,12.97
2022-10-23T03:23:34.191Z,12.92
2022-10-23T03:24:36.966Z,12.94
2022-10-23T03:25:34.083Z,12.9
2022-10-23T03:26:34.059Z,12.93
2022-10-23T03:27:34.009Z,12.9
2022-10-23T03:28:34.035Z,12.91
2022-10-23T03:29:34.006Z,12.91
2022-10-23T03:30:33.927Z,12.95
2022-10-23T03:31:33.973Z,12.88
2022-10-23T03:32:34.040Z,12.78
2022-10-23T03:33:34.194Z,12.76
2022-10-23T03:34:34.049Z,12.74
2022-10-23T03:35:39.970Z,12.74
2022-10-23T03:36:33.893Z,12.71
2022-10-23T03:37:33.968Z,12.7
2022-10-23T03:38:34.261Z,12.74
2022-10-23T03:39:33.915Z,12.72
2022-10-23T03:40:33.844Z,12.72
2022-10-23T03:41:33.855Z,12.7
2022-10-23T03:42:33.965Z,12.69
2022-10-23T03:43:34.185Z,12.71
2022-10-23T03:44:33.823Z,12.68
2022-10-23T03:45:33.981Z,12.67
2022-10-23T03:46:36.883Z,12.66
2022-10-23T03:47:33.935Z,12.63
2022-10-23T03:48:34.259Z,12.63
2022-10-23T03:49:33.935Z,12.61
2022-10-23T03:50:34.268Z,12.62
2022-10-23T03:51:34.006Z,12.61
2022-10-23T03:52:33.835Z,12.58
2022-10-23T03:53:34.268Z,12.59
2022-10-23T03:54:33.913Z,12.6
2022-10-23T03:55:33.834Z,12.59
2022-10-23T03:56:33.833Z,12.58
2022-10-23T03:57:36.891Z,12.56
2022-10-23T03:58:34.185Z,12.56
2022-10-23T03:59:33.918Z,12.55
2022-10-23T04:00:33.887Z,12.56
2022-10-23T04:01:34.068Z,12.53
2022-10-23T04:02:33.944Z,12.52
2022-10-23T04:03:34.187Z,12.49
2022-10-23T04:04:33.964Z,12.51
2022-10-23T04:05:34.190Z,12.5
2022-10-23T04:06:33.938Z,12.48
2022-10-23T04:07:33.914Z,12.48
2022-10-23T04:08:36.963Z,12.46
2022-10-23T04:09:33.926Z,12.48
2022-10-23T04:10:33.866Z,12.51
2022-10-23T04:11:33.960Z,12.55
2022-10-23T04:12:34.035Z,12.58
2022-10-23T04:13:34.189Z,12.58
2022-10-23T04:14:33.947Z,12.53
2022-10-23T04:15:33.981Z,12.6
2022-10-23T04:16:33.971Z,12.59
2022-10-23T04:17:33.823Z,12.59
2022-10-23T04:18:34.263Z,12.61
2022-10-23T04:19:36.833Z,12.62
2022-10-23T04:20:34.188Z,12.69
2022-10-23T04:21:33.915Z,12.69
2022-10-23T04:22:33.944Z,12.67
2022-10-23T04:23:34.269Z,12.65
2022-10-23T04:24:34.000Z,12.64
2022-10-23T04:25:34.069Z,12.65
2022-10-23T04:26:33.893Z,12.64
2022-10-23T04:27:33.854Z,12.66
2022-10-23T04:28:34.266Z,12.67
2022-10-23T04:29:34.006Z,12.63
2022-10-23T04:30:36.914Z,12.63
2022-10-23T04:31:34.025Z,12.71
2022-10-23T04:32:33.924Z,12.75
2022-10-23T04:33:34.519Z,12.72
2022-10-23T04:34:33.948Z,12.73
2022-10-23T04:35:34.263Z,12.74
2022-10-23T04:36:33.849Z,12.72
2022-10-23T04:37:33.933Z,12.71
2022-10-23T04:38:33.881Z,12.66
2022-10-23T04:39:33.847Z,12.66
2022-10-23T04:40:33.841Z,12.67
2022-10-23T04:41:36.821Z,12.66
2022-10-23T04:42:33.980Z,12.65
2022-10-23T04:43:34.257Z,12.64
2022-10-23T04:44:33.914Z,12.62
2022-10-23T04:45:33.827Z,12.61
2022-10-23T04:46:33.838Z,12.6
2022-10-23T04:47:33.935Z,12.61
2022-10-23T04:48:34.257Z,12.61
2022-10-23T04:49:34.029Z,12.55
2022-10-23T04:50:34.267Z,12.58
2022-10-23T04:51:33.916Z,12.58
2022-10-23T04:52:36.960Z,12.55
2022-10-23T04:53:34.196Z,12.58
2022-10-23T04:54:33.931Z,12.56
2022-10-23T04:55:33.903Z,12.56
2022-10-23T04:56:33.835Z,12.57
2022-10-23T04:57:33.921Z,12.58
2022-10-23T04:58:34.189Z,12.56
2022-10-23T04:59:33.928Z,12.56
2022-10-23T05:00:34.011Z,12.59
2022-10-23T05:01:34.087Z,12.61
2022-10-23T05:02:33.805Z,12.67
2022-10-23T05:03:39.885Z,12.68
2022-10-23T05:04:33.913Z,12.6
2022-10-23T05:05:34.262Z,12.59
2022-10-23T05:06:33.916Z,12.53
2022-10-23T05:07:33.830Z,12.55
2022-10-23T05:08:34.268Z,12.56
2022-10-23T05:09:33.913Z,12.55
2022-10-23T05:10:33.957Z,12.51
2022-10-23T05:11:34.002Z,12.43
2022-10-23T05:12:33.901Z,12.41
2022-10-23T05:13:34.262Z,12.36
2022-10-23T05:14:36.897Z,12.37
2022-10-23T05:15:34.146Z,12.35
2022-10-23T05:16:33.902Z,12.32
2022-10-23T05:17:33.954Z,12.33
2022-10-23T05:18:33.902Z,12.26
2022-10-23T05:19:33.969Z,12.2
2022-10-23T05:20:34.196Z,12.18
2022-10-23T05:21:33.936Z,12.08
2022-10-23T05:22:34.042Z,12.1
2022-10-23T05:23:34.189Z,12.05
2022-10-23T05:24:33.913Z,12.04
2022-10-23T05:25:36.853Z,12.05
2022-10-23T05:26:33.909Z,12.09
2022-10-23T05:27:33.919Z,12.06
2022-10-23T05:28:33.867Z,12.04
2022-10-23T05:29:33.830Z,12.04
2022-10-23T05:30:33.833Z,12.03
2022-10-23T05:31:33.839Z,12.07
2022-10-23T05:32:33.834Z,12.08
2022-10-23T05:33:33.942Z,12.08
2022-10-23T05:34:33.930Z,12.08
2022-10-23T05:35:34.198Z,12.05
2022-10-23T05:36:37.008Z,12.03
2022-10-23T05:37:34.019Z,12.01
2022-10-23T05:38:34.261Z,11.94
2022-10-23T05:39:33.945Z,11.93
2022-10-23T05:40:34.043Z,11.93
2022-10-23T05:41:34.041Z,11.9
2022-10-23T05:42:35.237Z,11.89
2022-10-23T05:43:34.266Z,11.94
2022-10-23T05:44:33.929Z,11.93
2022-10-23T05:45:33.861Z,11.9
2022-10-23T05:46:33.960Z,11.92
2022-10-23T05:47:36.945Z,11.96
2022-10-23T05:48:35.353Z,11.92
2022-10-23T05:49:33.956Z,11.91
2022-10-23T05:50:34.259Z,11.92
2022-10-23T05:51:33.899Z,11.96
2022-10-23T05:52:33.835Z,11.95
2022-10-23T05:53:36.167Z,12
2022-10-23T05:54:33.910Z,11.98
2022-10-23T05:55:33.950Z,11.92
2022-10-23T05:56:33.968Z,11.95
2022-10-23T05:57:33.980Z,11.98
2022-10-23T05:58:39.920Z,12.01
2022-10-23T05:59:33.960Z,12.09
2022-10-23T06:00:33.954Z,12.12
2022-10-23T06:01:34.113Z,12.15
2022-10-23T06:02:33.951Z,12.2
2022-10-23T06:03:33.914Z,12.24
2022-10-23T06:04:33.973Z,12.27
2022-10-23T06:05:34.309Z,12.25
2022-10-23T06:06:34.001Z,12.26
2022-10-23T06:07:35.859Z,12.27
2022-10-23T06:08:34.185Z,12.25
2022-10-23T06:09:36.860Z,12.27
2022-10-23T06:10:33.912Z,12.29
2022-10-23T06:11:33.846Z,12.31
2022-10-23T06:12:33.960Z,12.32
2022-10-23T06:13:34.189Z,12.3
2022-10-23T06:14:34.030Z,12.31
2022-10-23T06:15:33.828Z,12.31
2022-10-23T06:16:33.871Z,12.34
2022-10-23T06:17:33.851Z,12.34
2022-10-23T06:18:34.263Z,12.33
2022-10-23T06:19:34.018Z,12.27
2022-10-23T06:20:39.833Z,12.27
2022-10-23T06:21:33.949Z,12.28
2022-10-23T06:22:33.923Z,12.28
2022-10-23T06:23:34.308Z,12.26
2022-10-23T06:24:33.933Z,12.22
2022-10-23T06:25:33.972Z,12.23
2022-10-23T06:26:33.977Z,12.23
2022-10-23T06:27:33.842Z,12.25
2022-10-23T06:28:34.258Z,12.24
2022-10-23T06:29:34.017Z,12.25
2022-10-23T06:30:34.032Z,12.25
2022-10-23T06:31:36.964Z,12.26
2022-10-23T06:32:34.057Z,12.25
2022-10-23T06:33:34.184Z,12.25
2022-10-23T06:34:33.912Z,12.25
2022-10-23T06:35:34.262Z,12.21
2022-10-23T06:36:33.918Z,12.21
2022-10-23T06:37:33.946Z,12.24
2022-10-23T06:38:34.265Z,12.26
2022-10-23T06:39:33.918Z,12.27
2022-10-23T06:40:34.010Z,12.27
2022-10-23T06:41:33.979Z,12.28
2022-10-23T06:42:36.921Z,12.34
2022-10-23T06:43:34.187Z,12.37
2022-10-23T06:44:34.006Z,12.42
2022-10-23T06:45:34.033Z,12.4
2022-10-23T06:46:33.936Z,12.42
2022-10-23T06:47:33.906Z,12.44
2022-10-23T06:48:39.924Z,12.48
2022-10-23T06:49:33.905Z,12.54
2022-10-23T06:50:34.265Z,12.56
2022-10-23T06:51:33.895Z,12.65
2022-10-23T06:52:46.507Z,12.68
2022-10-23T06:53:33.955Z,12.75
2022-10-23T06:54:33.836Z,12.78
2022-10-23T06:55:33.942Z,12.78
2022-10-23T06:56:33.834Z,12.79
2022-10-23T06:57:33.851Z,12.89
2022-10-23T06:58:34.418Z,12.98
2022-10-23T06:59:36.949Z,12.95
2022-10-23T07:00:33.990Z,12.96
2022-10-23T07:01:34.169Z,13
2022-10-23T07:02:33.967Z,12.96
2022-10-23T07:03:33.934Z,12.96
2022-10-23T07:04:33.925Z,13.06
2022-10-23T07:05:33.960Z,13.03
2022-10-23T07:06:33.838Z,13.03
2022-10-23T07:07:33.827Z,13.01
2022-10-23T07:08:33.952Z,13.08
2022-10-23T07:09:33.898Z,13.1
2022-10-23T07:10:36.919Z,13.1
2022-10-23T07:11:34.045Z,13.13
2022-10-23T07:12:33.967Z,13.13
2022-10-23T07:13:33.933Z,13.12
2022-10-23T07:14:33.940Z,13.19
2022-10-23T07:15:33.933Z,13.21
2022-10-23T07:16:33.863Z,13.25
2022-10-23T07:17:33.972Z,13.29
2022-10-23T07:19:42.173Z,13.36
2022-10-23T07:20:42.114Z,13.42
2022-10-23T07:21:42.194Z,13.44
2022-10-23T07:22:42.490Z,13.38
2022-10-23T07:23:42.515Z,13.35
2022-10-23T07:24:45.238Z,13.38
2022-10-23T07:25:42.270Z,13.38
2022-10-23T07:26:42.313Z,13.31
2022-10-23T07:27:42.432Z,13.26
2022-10-23T07:28:42.494Z,13.3
2022-10-23T07:29:42.287Z,13.29
2022-10-23T07:30:42.078Z,13.4
2022-10-23T07:31:42.179Z,13.45
2022-10-23T07:32:42.177Z,13.46
2022-10-23T07:33:42.133Z,13.5
2022-10-23T07:34:42.186Z,13.48
2022-10-23T07:35:48.186Z,13.51
2022-10-23T07:36:42.237Z,13.56
2022-10-23T07:37:42.260Z,13.59
2022-10-23T07:38:42.503Z,13.62
2022-10-23T07:39:42.067Z,13.74
2022-10-23T07:40:42.060Z,13.73
2022-10-23T07:41:42.069Z,13.68
2022-10-23T07:42:42.069Z,13.65
2022-10-23T07:43:42.494Z,13.68
2022-10-23T07:44:42.056Z,13.66
2022-10-23T07:45:42.147Z,13.68
2022-10-23T07:46:45.180Z,13.73
2022-10-23T07:47:42.508Z,13.77
2022-10-23T07:48:42.289Z,13.8
2022-10-23T07:49:42.284Z,13.85
2022-10-23T07:50:42.470Z,13.91
2022-10-23T07:51:42.196Z,13.91
2022-10-23T07:52:42.513Z,13.97
2022-10-23T07:53:42.499Z,13.98
2022-10-23T07:54:42.153Z,14.02
2022-10-23T07:55:42.199Z,14.06
2022-10-23T07:56:42.224Z,14.11
2022-10-23T07:57:45.233Z,14.16
2022-10-23T07:58:42.419Z,14.12
2022-10-23T07:59:42.728Z,14.14
2022-10-23T08:00:42.203Z,14.2
2022-10-23T08:01:42.390Z,14.29
2022-10-23T08:02:42.529Z,14.38
2022-10-23T08:03:42.121Z,14.52
2022-10-23T08:04:42.207Z,14.56
2022-10-23T08:05:42.418Z,14.62
2022-10-23T08:06:42.154Z,14.71
2022-10-23T08:07:42.049Z,14.76
2022-10-23T08:08:48.153Z,14.82
2022-10-23T08:09:42.269Z,14.84
2022-10-23T08:10:42.153Z,14.82
2022-10-23T08:11:42.124Z,14.73
2022-10-23T08:12:42.455Z,14.74
2022-10-23T08:13:42.420Z,14.77
2022-10-23T08:14:42.092Z,14.68
2022-10-23T08:15:42.200Z,14.68
2022-10-23T08:16:42.180Z,14.71
2022-10-23T08:17:42.515Z,14.77
2022-10-23T08:18:42.455Z,14.85
2022-10-23T08:19:45.083Z,14.94
2022-10-23T08:20:42.582Z,14.87
2022-10-23T08:21:42.273Z,14.9
2022-10-23T08:22:42.216Z,14.97
2022-10-23T08:23:42.498Z,14.99
2022-10-23T08:24:42.252Z,15.05
2022-10-23T08:25:42.043Z,15.14
2022-10-23T08:26:42.043Z,15.13
2022-10-23T08:27:42.355Z,15.11
2022-10-23T08:28:42.496Z,15.11
2022-10-23T08:29:42.174Z,15.19
2022-10-23T08:30:45.181Z,15.23
2022-10-23T08:31:42.161Z,15.36
2022-10-23T08:32:42.073Z,15.44
2022-10-23T08:33:42.556Z,15.52
2022-10-23T08:34:42.240Z,15.52
2022-10-23T08:35:42.493Z,15.52
2022-10-23T08:36:42.052Z,15.63
2022-10-23T08:37:42.379Z,15.81
2022-10-23T08:38:42.487Z,15.94
2022-10-23T08:39:42.145Z,15.92
2022-10-23T08:40:42.076Z,15.93
2022-10-23T08:41:45.325Z,16.02
2022-10-23T08:42:42.623Z,16.15
2022-10-23T08:43:42.485Z,16.24
2022-10-23T08:44:42.103Z,16.33
2022-10-23T08:45:42.203Z,16.21
2022-10-23T08:46:42.153Z,16.16
2022-10-23T08:47:42.157Z,16.19
2022-10-23T08:48:42.553Z,16.26
2022-10-23T08:49:42.282Z,16.33
2022-10-23T08:50:42.559Z,16.37
2022-10-23T08:51:42.161Z,16.4
2022-10-23T08:52:45.467Z,16.37
2022-10-23T08:53:42.136Z,16.29
2022-10-23T08:54:42.282Z,16.37
2022-10-23T08:55:42.064Z,16.32
2022-10-23T08:56:42.209Z,16.33
2022-10-23T08:57:43.498Z,16.37
2022-10-23T08:58:42.237Z,16.38
2022-10-23T08:59:42.156Z,16.43
2022-10-23T09:00:42.109Z,16.47
2022-10-23T09:01:42.420Z,16.59
2022-10-23T09:02:42.579Z,16.64
2022-10-23T09:03:48.174Z,16.67
2022-10-23T09:04:42.150Z,16.75
2022-10-23T09:05:42.491Z,16.81
2022-10-23T09:06:42.223Z,16.84
2022-10-23T09:07:42.334Z,16.98
2022-10-23T09:08:42.492Z,16.94
2022-10-23T09:09:42.163Z,16.88
2022-10-23T09:10:42.062Z,17.01
2022-10-23T09:11:42.066Z,17.01
2022-10-23T09:12:42.047Z,17.07
2022-10-23T09:13:42.488Z,17.22
2022-10-23T09:14:45.107Z,17.33
2022-10-23T09:15:42.160Z,17.5
2022-10-23T09:16:42.061Z,17.49
2022-10-23T09:17:42.472Z,17.51
2022-10-23T09:18:42.056Z,17.56
2022-10-23T09:19:42.192Z,17.4
2022-10-23T09:20:42.417Z,17.11
2022-10-23T09:21:42.073Z,16.98
2022-10-23T09:22:42.079Z,16.95
2022-10-23T09:23:42.491Z,16.97
2022-10-23T09:24:42.158Z,16.97
2022-10-23T09:25:45.181Z,17.01
2022-10-23T09:26:42.211Z,17.1
2022-10-23T09:27:42.346Z,17.16
2022-10-23T09:28:42.506Z,17.18
2022-10-23T09:29:42.250Z,17.18
2022-10-23T09:30:42.283Z,17.23
2022-10-23T09:31:42.163Z,17.32
2022-10-23T09:32:42.178Z,17.37
2022-10-23T09:33:42.273Z,17.36
2022-10-23T09:34:42.188Z,17.38
2022-10-23T09:35:42.076Z,17.49
2022-10-23T09:36:45.197Z,17.55
2022-10-23T09:37:42.505Z,17.59
2022-10-23T09:38:42.537Z,17.62
2022-10-23T09:39:42.278Z,17.69
2022-10-23T09:40:42.275Z,17.76
2022-10-23T09:41:42.220Z,17.79
2022-10-23T09:42:42.094Z,17.83
2022-10-23T09:43:42.495Z,17.9
2022-10-23T09:44:42.201Z,18
2022-10-23T09:45:42.277Z,17.93
2022-10-23T09:46:42.331Z,17.92
2022-10-23T09:47:45.499Z,17.7
2022-10-23T09:48:42.478Z,17.57
2022-10-23T09:49:42.175Z,17.54
2022-10-23T09:50:42.132Z,17.56
2022-10-23T09:51:42.128Z,17.61
2022-10-23T09:52:42.187Z,17.84
2022-10-23T09:53:42.269Z,18.05
2022-10-23T09:54:42.077Z,18.18
2022-10-23T09:55:42.215Z,18.28
2022-10-23T09:56:42.372Z,18.45
2022-10-23T09:57:42.580Z,18.74
2022-10-23T09:58:48.223Z,18.84
2022-10-23T09:59:42.355Z,19.04
2022-10-23T10:00:42.296Z,19.18
2022-10-23T10:01:42.434Z,19.24
2022-10-23T10:02:42.229Z,19.16
2022-10-23T10:03:42.442Z,19.21
2022-10-23T10:04:42.071Z,19.19
2022-10-23T10:05:42.165Z,19.17
2022-10-23T10:07:49.489Z,18.77
2022-10-23T10:08:51.871Z,18.82
2022-10-23T10:09:49.643Z,18.97
2022-10-23T10:10:49.576Z,19.12
2022-10-23T10:11:49.520Z,19.26
2022-10-23T10:12:52.577Z,19.51
2022-10-23T10:13:49.679Z,19.72
2022-10-23T10:14:49.551Z,19.66
2022-10-23T10:15:49.582Z,19.57
2022-10-23T10:16:49.679Z,19.64
2022-10-23T10:17:49.895Z,19.8
2022-10-23T10:18:49.851Z,19.85
2022-10-23T10:19:49.548Z,19.94
2022-10-23T10:20:49.653Z,20.05
2022-10-23T10:21:49.577Z,20.01
2022-10-23T10:22:49.431Z,19.74
2022-10-23T10:23:52.582Z,19.57
2022-10-23T10:24:49.601Z,19.46
2022-10-23T10:25:52.147Z,19.48
2022-10-23T10:26:49.449Z,19.55
2022-10-23T10:27:49.433Z,19.46
2022-10-23T10:28:49.423Z,19.54
2022-10-23T10:29:49.443Z,19.54
2022-10-23T10:30:49.444Z,19.51
2022-10-23T10:31:52.244Z,19.49
2022-10-23T10:32:49.421Z,19.49
2022-10-23T10:33:49.545Z,19.24
2022-10-23T10:34:52.590Z,19.12
2022-10-23T10:35:49.649Z,18.96
2022-10-23T10:36:49.639Z,18.88
2022-10-23T10:37:49.973Z,18.84
2022-10-23T10:38:49.642Z,18.83
2022-10-23T10:39:49.511Z,18.85
2022-10-23T10:40:49.524Z,18.86
2022-10-23T10:41:49.556Z,18.82
2022-10-23T10:42:49.649Z,18.77
2022-10-23T10:43:49.554Z,18.74
2022-10-23T10:44:49.545Z,18.8
2022-10-23T10:45:52.593Z,18.88
2022-10-23T10:46:49.647Z,18.94
2022-10-23T10:47:49.629Z,18.99
2022-10-23T10:48:50.004Z,18.99
2022-10-23T10:49:49.777Z,19.09
2022-10-23T10:50:50.171Z,19.26
2022-10-23T10:51:49.435Z,19.39
2022-10-23T10:52:49.517Z,19.5
2022-10-23T10:53:49.504Z,19.47
2022-10-23T10:54:49.612Z,19.2
2022-10-23T10:55:49.496Z,19.11
2022-10-23T10:56:52.525Z,18.99
2022-10-23T10:57:49.633Z,18.96
2022-10-23T10:58:49.801Z,18.83
2022-10-23T10:59:49.493Z,18.77
2022-10-23T11:00:49.563Z,18.79
2022-10-23T11:01:49.723Z,18.77
2022-10-23T11:02:49.445Z,18.74
2022-10-23T11:03:49.874Z,18.65
2022-10-23T11:04:49.611Z,18.58
2022-10-23T11:05:49.866Z,18.51
2022-10-23T11:06:49.624Z,18.44
2022-10-23T11:07:52.562Z,18.54
2022-10-23T11:08:57.466Z,18.48
2022-10-23T11:09:49.517Z,18.35
2022-10-23T11:10:49.432Z,18.12
2022-10-23T11:11:49.427Z,17.94
2022-10-23T11:12:49.526Z,17.93
2022-10-23T11:13:49.449Z,17.95
2022-10-23T11:14:50.325Z,18.02
2022-10-23T11:15:49.552Z,18.11
2022-10-23T11:16:49.452Z,18.25
2022-10-23T11:17:49.508Z,18.34
2022-10-23T11:18:52.525Z,18.4
2022-10-23T11:19:49.615Z,18.5
2022-10-23T11:20:49.553Z,18.62
2022-10-23T11:21:49.437Z,18.76
2022-10-23T11:22:49.653Z,18.82
2022-10-23T11:23:49.799Z,19.04
2022-10-23T11:24:50.176Z,19.25
2022-10-23T11:25:49.518Z,19.45
2022-10-23T11:26:49.612Z,19.66
2022-10-23T11:27:49.541Z,19.67
2022-10-23T11:28:49.653Z,19.75
2022-10-23T11:29:52.464Z,19.88
2022-10-23T11:30:49.631Z,20.02
2022-10-23T11:31:49.521Z,20.14
2022-10-23T11:32:49.690Z,20.24
2022-10-23T11:33:49.658Z,20.17
2022-10-23T11:34:49.511Z,20.18
2022-10-23T11:35:49.469Z,20.21
2022-10-23T11:36:49.433Z,20.32
2022-10-23T11:37:49.439Z,20.36
2022-10-23T11:38:49.967Z,20.31
2022-10-23T11:39:49.647Z,20.26
2022-10-23T11:40:52.551Z,20.14
2022-10-23T11:41:49.575Z,20.24
2022-10-23T11:42:49.545Z,20.61
2022-10-23T11:43:49.834Z,20.74
2022-10-23T11:44:49.442Z,20.9
2022-10-23T11:45:49.453Z,21.03
2022-10-23T11:46:49.437Z,21.09
2022-10-23T11:47:49.527Z,21.15
2022-10-23T11:48:49.569Z,21.15
2022-10-23T11:49:49.508Z,21.35
2022-10-23T11:50:49.569Z,21.41
2022-10-23T11:51:52.593Z,21.49
2022-10-23T11:53:12.595Z,21.46
2022-10-23T11:53:49.843Z,21.51
2022-10-23T11:54:49.602Z,21.48
2022-10-23T11:55:49.436Z,21.42
2022-10-23T11:56:49.436Z,21.38
2022-10-23T11:57:49.425Z,21.34
2022-10-23T11:58:49.878Z,21.29
2022-10-23T11:59:49.556Z,21.13
2022-10-23T12:00:49.441Z,21.03
2022-10-23T12:01:49.557Z,21.18
2022-10-23T12:02:57.037Z,21.42
2022-10-23T12:03:49.808Z,21.45
2022-10-23T12:04:49.477Z,21.53
2022-10-23T12:05:49.923Z,21.7
2022-10-23T12:06:49.705Z,21.71
2022-10-23T12:07:49.600Z,21.72
2022-10-23T12:08:55.544Z,21.97
2022-10-23T12:09:49.564Z,22.17
2022-10-23T12:10:49.437Z,22.46
2022-10-23T12:11:49.527Z,22.83
2022-10-23T12:12:49.540Z,23.1
2022-10-23T12:13:49.799Z,23.17
2022-10-23T12:14:49.527Z,23.29
2022-10-23T12:15:49.548Z,23.26
2022-10-23T12:16:49.521Z,23.25
2022-10-23T12:17:49.590Z,23.25
2022-10-23T12:18:49.805Z,23.16
2022-10-23T12:19:52.467Z,22.87
2022-10-23T12:20:49.802Z,22.76
2022-10-23T12:21:49.507Z,22.73
2022-10-23T12:22:49.447Z,22.72
2022-10-23T12:23:49.431Z,22.68
2022-10-23T12:24:49.645Z,22.59
2022-10-23T12:25:49.422Z,22.59
2022-10-23T12:26:49.611Z,22.48
2022-10-23T12:27:49.660Z,22.16
2022-10-23T12:28:49.653Z,21.89
2022-10-23T12:29:49.609Z,21.7
2022-10-23T12:30:52.616Z,21.6
2022-10-23T12:31:49.662Z,21.51
2022-10-23T12:32:49.606Z,21.61
2022-10-23T12:33:49.992Z,21.69
2022-10-23T12:34:49.616Z,21.64
2022-10-23T12:35:49.539Z,21.67
2022-10-23T12:36:49.425Z,21.72
2022-10-23T12:37:49.655Z,21.74
2022-10-23T12:38:49.803Z,21.77
2022-10-23T12:39:49.493Z,21.86
2022-10-23T12:40:49.444Z,21.66
2022-10-23T12:41:52.777Z,21.55
2022-10-23T12:42:49.542Z,21.59
2022-10-23T12:43:49.875Z,21.56
2022-10-23T12:44:49.632Z,21.53
2022-10-23T12:45:49.427Z,21.56
2022-10-23T12:46:49.535Z,21.62
2022-10-23T12:47:49.723Z,21.65
2022-10-23T12:48:49.875Z,21.63
2022-10-23T12:49:49.652Z,21.64
2022-10-23T12:50:49.807Z,21.65
2022-10-23T12:51:49.529Z,21.66
2022-10-23T12:52:52.568Z,21.66
2022-10-23T12:53:49.656Z,21.57
2022-10-23T12:54:49.502Z,21.31
2022-10-23T12:55:49.610Z,21.05
2022-10-23T12:56:51.148Z,20.91
2022-10-23T12:57:49.659Z,20.79
2022-10-23T12:58:49.799Z,20.8
2022-10-23T12:59:49.523Z,20.81
2022-10-23T13:00:49.464Z,20.76